Time;durP1;ratioP1;P1;durP2;ratioP2;P2;SDS_P1;SDS_P2;PMS_P1;PMS_P2;Temp;Humidity;BMP_temperature;BMP_pressure;BME280_temperature;BME280_humidity;BME280_pressure;Samples;Min_cycle;Max_cycle;Signal;HPM_P1;HPM_P2
2021/01/06 00:02:17;;;;;;;10.98;6.60;;;3.90;99.90;;;;;;5061064;28;20268;-85
2021/01/06 00:04:43;;;;;;;12.13;7.78;;;3.90;99.90;;;;;;5060401;28;20219;-82
2021/01/06 00:07:09;;;;;;;11.98;7.60;;;3.90;99.90;;;;;;5059786;28;20259;-83
2021/01/06 00:09:35;;;;;;;10.38;8.13;;;3.90;99.90;;;;;;5061203;28;20231;-84
2021/01/06 00:12:04;;;;;;;9.38;6.97;;;3.90;99.90;;;;;;5061059;28;20191;-88
2021/01/06 00:14:31;;;;;;;8.43;6.30;;;4.00;99.90;;;;;;5061249;28;20239;-84
2021/01/06 00:16:58;;;;;;;6.22;5.60;;;4.00;99.90;;;;;;5060793;28;20255;-83
2021/01/06 00:19:25;;;;;;;9.90;7.40;;;4.00;99.90;;;;;;5060902;28;20403;-83
2021/01/06 00:21:51;;;;;;;6.45;5.47;;;3.90;99.90;;;;;;5060298;28;20238;-83
2021/01/06 00:24:17;;;;;;;8.25;6.47;;;4.00;99.90;;;;;;5049710;28;20314;-83
2021/01/06 00:26:44;;;;;;;12.25;5.88;;;3.90;99.90;;;;;;5046845;28;20200;-83
2021/01/06 00:29:11;;;;;;;6.60;5.65;;;3.90;99.90;;;;;;5047707;28;20227;-83
2021/01/06 00:31:38;;;;;;;9.80;6.97;;;4.00;99.90;;;;;;5049413;28;20210;-85
2021/01/06 00:34:06;;;;;;;11.50;6.85;;;3.90;99.90;;;;;;5046669;28;20268;-84
2021/01/06 00:36:32;;;;;;;6.80;6.20;;;4.00;99.90;;;;;;5047450;28;20207;-83
2021/01/06 00:38:58;;;;;;;8.27;6.72;;;3.90;99.90;;;;;;5045003;28;20368;-84
2021/01/06 00:41:26;;;;;;;9.40;6.25;;;3.90;99.90;;;;;;5045306;28;20211;-84
2021/01/06 00:43:52;;;;;;;10.55;6.95;;;3.90;99.90;;;;;;5045871;28;20199;-83
2021/01/06 00:46:19;;;;;;;6.00;5.20;;;3.90;99.90;;;;;;5045821;28;20294;-84
2021/01/06 00:48:46;;;;;;;10.80;6.32;;;3.90;99.90;;;;;;5045599;28;20227;-84
2021/01/06 00:51:13;;;;;;;8.02;6.57;;;3.90;99.90;;;;;;5045745;28;20204;-82
2021/01/06 00:53:39;;;;;;;10.60;6.55;;;3.90;99.90;;;;;;5045685;28;20207;-84
2021/01/06 00:56:06;;;;;;;8.68;6.07;;;3.90;99.90;;;;;;5045816;28;20208;-84
2021/01/06 00:58:33;;;;;;;7.68;6.03;;;3.90;99.90;;;;;;5049832;28;20254;-84
2021/01/06 01:00:59;;;;;;;6.57;5.55;;;4.00;99.90;;;;;;5059546;28;20223;-84
2021/01/06 01:03:25;;;;;;;7.30;6.00;;;3.90;99.90;;;;;;5059071;28;20243;-83
2021/01/06 01:05:51;;;;;;;8.32;5.00;;;3.90;99.90;;;;;;5059812;28;20274;-85
2021/01/06 01:08:19;;;;;;;6.75;4.07;;;3.90;99.90;;;;;;5059332;28;20271;-83
2021/01/06 01:10:46;;;;;;;4.85;3.85;;;3.90;99.90;;;;;;5059410;28;20259;-83
2021/01/06 01:13:16;;;;;;;6.45;4.25;;;3.90;99.90;;;;;;5059833;28;20243;-84
2021/01/06 01:15:44;;;;;;;5.38;4.15;;;3.90;99.90;;;;;;5059665;28;20291;-84
2021/01/06 01:18:13;;;;;;;5.93;4.88;;;3.80;99.90;;;;;;5058258;28;20230;-85
2021/01/06 01:20:43;;;;;;;5.70;4.30;;;3.80;99.90;;;;;;5045022;28;20271;-84
2021/01/06 01:23:09;;;;;;;4.03;2.88;;;3.90;99.90;;;;;;5044632;28;20192;-84
2021/01/06 01:25:37;;;;;;;4.15;3.42;;;3.90;99.90;;;;;;5043911;28;20228;-83
2021/01/06 01:28:03;;;;;;;5.57;4.45;;;3.90;99.90;;;;;;5044720;28;20200;-83
2021/01/06 01:30:29;;;;;;;6.93;4.38;;;3.80;99.90;;;;;;5044171;28;20208;-84
2021/01/06 01:32:56;;;;;;;7.88;5.22;;;3.80;99.90;;;;;;5043952;28;20203;-84
2021/01/06 01:35:25;;;;;;;6.35;4.07;;;3.80;99.90;;;;;;5044364;28;20621;-84
2021/01/06 01:37:52;;;;;;;4.03;3.63;;;3.80;99.90;;;;;;5043620;28;20210;-84
2021/01/06 01:40:23;;;;;;;4.38;3.63;;;3.80;99.90;;;;;;5044618;28;20234;-85
2021/01/06 01:42:55;;;;;;;4.05;3.60;;;3.70;99.90;;;;;;5044629;28;20279;-83
2021/01/06 01:45:26;;;;;;;3.30;3.00;;;3.70;99.90;;;;;;5044550;28;20218;-83
2021/01/06 01:47:58;;;;;;;3.95;3.17;;;3.70;99.90;;;;;;5044195;28;20189;-83
2021/01/06 01:50:25;;;;;;;5.35;3.22;;;3.70;99.90;;;;;;5044853;28;20594;-83
2021/01/06 01:52:57;;;;;;;3.35;2.85;;;3.70;99.90;;;;;;5043942;28;20205;-83
2021/01/06 01:55:25;;;;;;;3.58;3.08;;;3.70;99.90;;;;;;5044750;28;20184;-83
2021/01/06 01:57:57;;;;;;;3.00;2.70;;;3.70;99.90;;;;;;5044712;28;20271;-83
2021/01/06 02:00:27;;;;;;;4.20;2.65;;;3.60;99.90;;;;;;5044282;28;20184;-82
2021/01/06 02:03:14;;;;;;;4.10;3.33;;;3.70;99.90;;;;;;5043588;28;20263;-82
2021/01/06 02:05:47;;;;;;;3.80;2.38;;;3.70;99.90;;;;;;5043148;28;20279;-83
2021/01/06 02:08:20;;;;;;;3.30;3.00;;;3.70;99.90;;;;;;5044403;28;20212;-83
2021/01/06 02:10:52;;;;;;;2.97;2.78;;;3.70;99.90;;;;;;5051908;28;20236;-83
2021/01/06 02:13:23;;;;;;;3.15;2.80;;;3.70;99.90;;;;;;5051760;28;20184;-83
2021/01/06 02:16:00;;;;;;;5.07;3.42;;;3.70;99.90;;;;;;5045062;28;20213;-83
2021/01/06 02:18:26;;;;;;;3.63;2.97;;;3.60;99.90;;;;;;5043551;28;20219;-83
2021/01/06 02:21:02;;;;;;;2.20;2.00;;;3.60;99.90;;;;;;5042670;28;20245;-83
2021/01/06 02:23:28;;;;;;;2.60;2.40;;;3.60;99.90;;;;;;5042698;28;20213;-83
2021/01/06 02:25:55;;;;;;;2.55;2.15;;;3.60;99.90;;;;;;5041751;28;20223;-83
2021/01/06 02:28:23;;;;;;;2.53;2.33;;;3.60;99.90;;;;;;5042335;28;20724;-84
2021/01/06 02:30:49;;;;;;;3.17;2.20;;;3.60;99.90;;;;;;5041812;28;20204;-83
2021/01/06 02:33:16;;;;;;;2.40;2.20;;;3.60;99.90;;;;;;5042108;28;20207;-83
2021/01/06 02:35:42;;;;;;;2.20;1.88;;;3.60;99.90;;;;;;5042831;28;20206;-83
2021/01/06 02:38:10;;;;;;;2.25;1.90;;;3.60;99.90;;;;;;5041832;28;20235;-84
2021/01/06 02:40:36;;;;;;;2.15;1.98;;;3.50;99.90;;;;;;5044035;28;20199;-83
2021/01/06 02:43:03;;;;;;;2.25;1.75;;;3.60;99.90;;;;;;5043789;28;20200;-83
2021/01/06 02:45:30;;;;;;;2.88;2.08;;;3.50;99.90;;;;;;5042054;28;20223;-83
2021/01/06 02:47:56;;;;;;;1.98;1.77;;;3.50;99.90;;;;;;5042025;28;20274;-84
2021/01/06 02:50:29;;;;;;;3.00;2.60;;;3.50;99.90;;;;;;5042283;28;20286;-83
2021/01/06 02:52:59;;;;;;;3.10;2.30;;;3.50;99.90;;;;;;5043442;28;20276;-83
2021/01/06 02:55:30;;;;;;;2.80;2.10;;;3.50;99.90;;;;;;5041593;28;20557;-84
2021/01/06 02:58:00;;;;;;;2.00;1.67;;;3.50;99.90;;;;;;5041871;28;20659;-84
2021/01/06 03:00:27;;;;;;;3.28;2.15;;;3.50;99.90;;;;;;5041254;28;20202;-83
2021/01/06 03:02:54;;;;;;;2.50;2.30;;;3.50;99.90;;;;;;5041446;28;20211;-83
2021/01/06 03:05:26;;;;;;;2.65;2.33;;;3.40;99.90;;;;;;5041926;28;20229;-82
2021/01/06 03:07:53;;;;;;;2.42;2.00;;;3.50;99.90;;;;;;5041775;28;20631;-82
2021/01/06 03:10:21;;;;;;;2.38;2.17;;;3.40;99.90;;;;;;5041439;28;20210;-82
2021/01/06 03:12:50;;;;;;;2.20;2.00;;;3.30;99.90;;;;;;5041708;28;20204;-82
2021/01/06 03:15:21;;;;;;;2.60;2.40;;;3.40;99.90;;;;;;5045985;28;20225;-82
2021/01/06 03:17:48;;;;;;;2.00;1.83;;;3.40;99.90;;;;;;5043601;28;20192;-82
2021/01/06 03:20:20;;;;;;;1.60;1.50;;;3.30;99.90;;;;;;5042705;28;20594;-82
2021/01/06 03:22:50;;;;;;;1.98;1.80;;;3.40;99.90;;;;;;5045778;28;20241;-82
2021/01/06 03:25:18;;;;;;;2.20;1.90;;;3.40;99.90;;;;;;5054152;28;20211;-82
2021/01/06 03:27:47;;;;;;;1.02;0.85;;;3.30;99.90;;;;;;5056400;28;20286;-84
2021/01/06 03:30:21;;;;;;;2.25;1.85;;;3.30;99.90;;;;;;5048533;28;20211;-82
2021/01/06 03:32:57;;;;;;;1.92;1.70;;;3.20;99.90;;;;;;5046184;28;20188;-82
2021/01/06 03:35:29;;;;;;;2.00;1.80;;;3.30;99.90;;;;;;5046470;28;20187;-82
2021/01/06 03:38:01;;;;;;;2.15;1.95;;;3.20;99.90;;;;;;5044581;28;20278;-83
2021/01/06 03:40:33;;;;;;;3.15;1.85;;;3.20;99.90;;;;;;5041010;28;20214;-83
2021/01/06 03:42:59;;;;;;;2.25;1.90;;;3.20;99.90;;;;;;5041098;28;20188;-83
2021/01/06 03:45:29;;;;;;;1.90;1.80;;;3.20;99.90;;;;;;5040814;28;20228;-84
2021/01/06 03:48:01;;;;;;;2.00;1.65;;;3.20;99.90;;;;;;5042040;28;20204;-84
2021/01/06 03:50:33;;;;;;;2.75;1.38;;;3.10;99.90;;;;;;5042532;28;20664;-83
2021/01/06 03:53:21;;;;;;;2.53;2.00;;;3.20;99.90;;;;;;5042942;28;20227;-83
2021/01/06 03:55:52;;;;;;;2.65;2.45;;;3.10;99.90;;;;;;5042400;28;20194;-84
2021/01/06 03:58:33;;;;;;;2.47;1.70;;;3.10;99.90;;;;;;5044147;28;20692;-84
2021/01/06 04:01:14;;;;;;;2.05;1.63;;;3.10;99.90;;;;;;5046392;28;20227;-83
2021/01/06 04:03:50;;;;;;;1.15;0.93;;;3.10;99.90;;;;;;5043681;28;20676;-84
2021/01/06 04:06:18;;;;;;;2.28;1.40;;;3.00;99.90;;;;;;5043433;28;20180;-83
2021/01/06 04:08:50;;;;;;;1.40;1.30;;;3.00;99.90;;;;;;5046648;28;20227;-83
2021/01/06 04:11:20;;;;;;;1.95;1.85;;;3.00;99.90;;;;;;5046380;28;20188;-84
2021/01/06 04:13:46;;;;;;;2.10;1.90;;;3.00;99.90;;;;;;5043894;28;20336;-84
2021/01/06 04:16:13;;;;;;;1.63;1.48;;;3.00;99.90;;;;;;5043926;28;20204;-84
2021/01/06 04:18:40;;;;;;;2.22;2.10;;;3.00;99.90;;;;;;5043749;28;20223;-84
2021/01/06 04:21:06;;;;;;;2.15;1.98;;;3.00;99.90;;;;;;5043921;28;20200;-84
2021/01/06 04:23:33;;;;;;;1.52;1.42;;;3.00;99.90;;;;;;5043967;28;20387;-84
2021/01/06 04:26:00;;;;;;;2.88;2.08;;;3.00;99.90;;;;;;5045493;28;20223;-84
2021/01/06 04:28:29;;;;;;;1.95;1.85;;;2.90;99.90;;;;;;5046901;28;20227;-84
2021/01/06 04:30:57;;;;;;;1.88;1.77;;;3.00;99.90;;;;;;5044121;28;20322;-84
2021/01/06 04:33:27;;;;;;;1.95;1.55;;;2.90;99.90;;;;;;5041813;28;20505;-84
2021/01/06 04:35:55;;;;;;;1.77;1.67;;;3.00;99.90;;;;;;5042472;28;20707;-84
2021/01/06 04:38:26;;;;;;;1.52;1.30;;;2.90;99.90;;;;;;5041158;28;20463;-84
2021/01/06 04:40:55;;;;;;;1.45;1.17;;;3.00;99.90;;;;;;5041278;28;20529;-84
2021/01/06 04:43:28;;;;;;;1.40;1.30;;;2.90;99.90;;;;;;5042437;28;20442;-84
2021/01/06 04:46:21;;;;;;;2.72;1.65;;;2.90;99.90;;;;;;5042239;28;20208;-84
2021/01/06 04:49:03;;;;;;;1.20;1.10;;;2.90;99.90;;;;;;5041373;28;20224;-84
2021/01/06 04:51:54;;;;;;;1.35;1.25;;;3.00;99.90;;;;;;5041360;28;20230;-83
2021/01/06 04:54:43;;;;;;;1.20;1.10;;;2.90;99.90;;;;;;5036375;28;20452;-84
2021/01/06 04:57:27;;;;;;;1.38;1.27;;;2.80;99.90;;;;;;5043280;28;20915;-84
2021/01/06 05:00:19;;;;;;;0.98;0.80;;;2.90;99.90;;;;;;5040830;28;20224;-84
2021/01/06 05:03:13;;;;;;;1.40;1.10;;;2.90;99.90;;;;;;5041883;28;20234;-84
2021/01/06 05:05:54;;;;;;;1.65;1.30;;;2.80;99.90;;;;;;5041351;28;20220;-84
2021/01/06 05:08:29;;;;;;;1.40;1.30;;;2.80;99.90;;;;;;5042234;28;20700;-85
2021/01/06 05:11:02;;;;;;;0.90;0.90;;;2.80;99.90;;;;;;5042171;28;20198;-84
2021/01/06 05:13:34;;;;;;;1.20;1.10;;;2.80;99.90;;;;;;5040397;28;20198;-84
2021/01/06 05:16:04;;;;;;;1.13;1.10;;;2.70;99.90;;;;;;5041421;28;20257;-85
2021/01/06 05:18:30;;;;;;;1.35;1.25;;;2.70;99.90;;;;;;5040736;28;20224;-85
2021/01/06 05:20:58;;;;;;;0.80;0.80;;;2.70;99.90;;;;;;5052228;28;20267;-84
2021/01/06 05:23:28;;;;;;;1.55;1.10;;;2.70;99.90;;;;;;5051679;28;20724;-84
2021/01/06 05:25:56;;;;;;;1.25;1.15;;;2.60;99.90;;;;;;5043418;28;20215;-84
2021/01/06 05:28:23;;;;;;;0.80;0.80;;;2.60;99.90;;;;;;5040222;28;20531;-84
2021/01/06 05:30:54;;;;;;;1.30;1.20;;;2.60;99.90;;;;;;5039704;28;20207;-84
2021/01/06 05:33:24;;;;;;;1.20;1.10;;;2.70;99.90;;;;;;5040984;28;20192;-84
2021/01/06 05:35:50;;;;;;;1.05;0.95;;;2.70;99.90;;;;;;5046759;28;20182;-84
2021/01/06 05:38:18;;;;;;;1.42;1.33;;;2.70;99.90;;;;;;5049568;28;20303;-84
2021/01/06 05:40:46;;;;;;;1.35;1.25;;;2.70;99.90;;;;;;5046843;28;20626;-84
2021/01/06 05:43:41;;;;;;;1.85;1.75;;;2.70;99.90;;;;;;5041207;28;20204;-84
2021/01/06 05:46:17;;;;;;;1.83;1.60;;;2.70;99.90;;;;;;5029677;28;20231;-85
2021/01/06 05:48:50;;;;;;;1.33;1.23;;;2.60;99.90;;;;;;5037378;28;20628;-84
2021/01/06 05:51:21;;;;;;;2.35;2.25;;;2.70;99.90;;;;;;5040746;28;20199;-84
2021/01/06 05:53:57;;;;;;;3.65;2.90;;;2.50;99.90;;;;;;5039687;28;20195;-84
2021/01/06 05:56:47;;;;;;;3.25;3.03;;;2.50;99.90;;;;;;5040793;28;20202;-84
2021/01/06 05:59:39;;;;;;;1.90;1.80;;;2.50;99.90;;;;;;5024106;28;20233;-84
2021/01/06 06:02:15;;;;;;;2.72;2.63;;;2.50;99.90;;;;;;5040059;28;20194;-84
2021/01/06 06:04:49;;;;;;;3.22;2.95;;;2.60;99.90;;;;;;5038929;28;20261;-84
2021/01/06 06:07:24;;;;;;;3.40;3.20;;;2.50;99.90;;;;;;5039967;28;20276;-84
2021/01/06 06:10:05;;;;;;;3.75;3.45;;;2.50;99.90;;;;;;5039664;28;20671;-84
2021/01/06 06:12:45;;;;;;;3.40;3.20;;;2.50;99.90;;;;;;5038974;28;20277;-84
2021/01/06 06:15:33;;;;;;;4.38;3.97;;;2.50;99.90;;;;;;5040195;28;20267;-84
2021/01/06 06:18:38;;;;;;;5.60;4.97;;;2.60;99.90;;;;;;5040335;28;20196;-84
2021/01/06 06:21:19;;;;;;;5.82;5.22;;;2.40;99.90;;;;;;5041630;28;20358;-84
2021/01/06 06:24:03;;;;;;;5.88;5.35;;;2.50;99.90;;;;;;5040152;28;20199;-84
2021/01/06 06:26:44;;;;;;;6.45;5.85;;;2.50;99.90;;;;;;5040255;28;20231;-84
2021/01/06 06:29:20;;;;;;;4.85;4.43;;;2.40;99.90;;;;;;5039762;28;20231;-84
2021/01/06 06:31:51;;;;;;;4.85;4.40;;;2.50;99.90;;;;;;5039230;28;20223;-84
2021/01/06 06:34:25;;;;;;;5.15;4.75;;;2.40;99.90;;;;;;5040431;28;20217;-84
2021/01/06 06:37:01;;;;;;;5.15;4.53;;;2.40;99.90;;;;;;5039620;28;20635;-84
2021/01/06 06:39:33;;;;;;;4.30;4.00;;;2.40;99.90;;;;;;5040407;28;20235;-85
2021/01/06 06:42:16;;;;;;;3.80;3.50;;;2.40;99.90;;;;;;5042418;28;20203;-85
2021/01/06 06:44:51;;;;;;;5.38;4.15;;;2.30;99.90;;;;;;5039971;28;20204;-85
2021/01/06 06:47:21;;;;;;;4.30;3.70;;;2.30;99.90;;;;;;5039234;28;20191;-85
2021/01/06 06:50:01;;;;;;;3.30;3.10;;;2.30;99.90;;;;;;5040815;28;20286;-85
2021/01/06 06:52:33;;;;;;;3.95;3.65;;;2.40;99.90;;;;;;5042815;28;20195;-85
2021/01/06 06:55:12;;;;;;;4.70;3.90;;;2.30;99.90;;;;;;5045490;28;20226;-84
2021/01/06 06:57:44;;;;;;;3.90;3.70;;;2.30;99.90;;;;;;5047259;28;20246;-84
2021/01/06 07:00:17;;;;;;;4.20;3.80;;;2.30;99.90;;;;;;5048720;28;20187;-84
2021/01/06 07:02:49;;;;;;;4.85;4.35;;;2.20;99.90;;;;;;5047278;28;20198;-83
2021/01/06 07:05:25;;;;;;;4.40;4.00;;;2.20;99.90;;;;;;5046194;28;20310;-83
2021/01/06 07:07:53;;;;;;;4.03;3.70;;;2.20;99.90;;;;;;5044659;28;20214;-85
2021/01/06 07:10:23;;;;;;;3.97;3.67;;;2.30;99.90;;;;;;5045013;28;20199;-84
2021/01/06 07:12:51;;;;;;;6.97;3.50;;;2.20;99.90;;;;;;5045494;28;20204;-84
2021/01/06 07:15:33;;;;;;;2.70;2.50;;;2.30;99.90;;;;;;5046644;28;20206;-84
2021/01/06 07:18:21;;;;;;;3.78;2.97;;;2.20;99.90;;;;;;5047732;28;20187;-84
2021/01/06 07:20:48;;;;;;;6.70;3.35;;;2.10;99.90;;;;;;5048772;28;20192;-84
2021/01/06 07:23:19;;;;;;;3.35;3.15;;;2.20;99.90;;;;;;5054110;28;20294;-84
2021/01/06 07:25:48;;;;;;;4.03;3.70;;;2.20;99.90;;;;;;5053236;28;20266;-84
2021/01/06 07:28:20;;;;;;;6.13;5.57;;;2.10;99.90;;;;;;5053562;28;20211;-84
2021/01/06 07:30:51;;;;;;;5.30;4.90;;;2.00;99.90;;;;;;5052041;28;20220;-84
2021/01/06 07:33:34;;;;;;;6.35;5.50;;;2.10;99.90;;;;;;5051794;28;20188;-84
2021/01/06 07:36:14;;;;;;;7.10;6.15;;;2.10;99.90;;;;;;5059661;28;20207;-85
2021/01/06 07:38:43;;;;;;;6.13;5.50;;;2.10;99.90;;;;;;5072544;22;20287;-85
2021/01/06 07:41:11;;;;;;;6.60;6.10;;;2.00;99.90;;;;;;5024601;28;20578;-85
2021/01/06 07:43:44;;;;;;;5.60;5.00;;;2.00;99.90;;;;;;5024529;28;20205;-86
2021/01/06 07:46:16;;;;;;;8.00;7.20;;;2.00;99.90;;;;;;5025499;28;20217;-87
2021/01/06 07:49:04;;;;;;;8.73;7.85;;;2.00;99.90;;;;;;5024719;28;20225;-86
2021/01/06 07:51:40;;;;;;;7.05;5.53;;;2.00;99.90;;;;;;5023953;28;20195;-85
2021/01/06 07:54:16;;;;;;;8.35;5.03;;;2.00;99.90;;;;;;5022371;28;20242;-85
2021/01/06 07:56:47;;;;;;;6.55;5.70;;;2.10;99.90;;;;;;5023555;28;20200;-86
2021/01/06 07:59:20;;;;;;;7.88;6.63;;;1.90;99.90;;;;;;5023698;28;20256;-86
2021/01/06 08:01:53;;;;;;;5.70;5.10;;;1.90;99.90;;;;;;5024132;28;20188;-86
2021/01/06 08:04:26;;;;;;;4.68;4.13;;;2.00;99.90;;;;;;5024346;28;20193;-85
2021/01/06 08:06:55;;;;;;;7.20;4.63;;;2.00;99.90;;;;;;5025582;28;20260;-86
2021/01/06 08:09:35;;;;;;;4.85;4.45;;;2.00;99.90;;;;;;5026207;28;20225;-86
2021/01/06 08:12:12;;;;;;;5.05;4.65;;;2.00;99.90;;;;;;5026091;28;20188;-88
2021/01/06 08:14:39;;;;;;;9.10;7.05;;;2.00;99.90;;;;;;5026423;28;20212;-85
2021/01/06 08:17:18;;;;;;;8.70;6.55;;;2.00;99.90;;;;;;5026566;28;20295;-86
2021/01/06 08:19:59;;;;;;;7.03;6.38;;;2.00;99.90;;;;;;5024900;28;20289;-86
2021/01/06 08:22:30;;;;;;;7.72;5.43;;;2.00;99.90;;;;;;5026433;28;20256;-85
2021/01/06 08:25:14;;;;;;;4.43;3.92;;;2.10;99.90;;;;;;5024100;28;20248;-88
2021/01/06 08:27:40;;;;;;;6.25;4.80;;;2.00;99.90;;;;;;5022207;28;20271;-87
2021/01/06 08:30:16;;;;;;;3.75;3.15;;;2.00;99.90;;;;;;5022583;28;20228;-87
2021/01/06 08:32:43;;;;;;;4.93;4.30;;;2.00;99.90;;;;;;5023655;28;20188;-87
2021/01/06 08:35:19;;;;;;;4.53;4.13;;;2.00;99.90;;;;;;5023631;28;20234;-87
2021/01/06 08:37:48;;;;;;;5.55;5.05;;;2.10;99.90;;;;;;5023194;28;20191;-86
2021/01/06 08:40:29;;;;;;;4.60;4.00;;;2.10;99.90;;;;;;5025980;28;20730;-87
2021/01/06 08:42:56;;;;;;;4.88;4.47;;;2.20;99.90;;;;;;5023454;28;20273;-87
2021/01/06 08:45:27;;;;;;;6.13;4.38;;;2.10;99.90;;;;;;5023831;28;20296;-87
2021/01/06 08:47:54;;;;;;;3.90;3.60;;;2.10;99.90;;;;;;5024035;28;20254;-87
2021/01/06 08:50:31;;;;;;;4.82;4.43;;;2.10;99.90;;;;;;5023770;28;20357;-88
2021/01/06 08:52:59;;;;;;;3.20;2.85;;;2.10;99.90;;;;;;5022660;28;20650;-87
2021/01/06 08:55:29;;;;;;;3.13;2.83;;;2.20;99.90;;;;;;5023480;28;20728;-87
2021/01/06 08:58:01;;;;;;;3.67;3.28;;;2.00;99.90;;;;;;5023416;28;20295;-87
2021/01/06 09:00:32;;;;;;;4.20;3.58;;;2.00;99.90;;;;;;5023333;28;20246;-87
2021/01/06 09:03:08;;;;;;;2.83;2.55;;;2.20;99.90;;;;;;5029284;28;20224;-87
2021/01/06 09:05:53;;;;;;;3.70;3.35;;;2.30;99.90;;;;;;5024211;28;20288;-87
2021/01/06 09:08:22;;;;;;;6.28;4.55;;;2.30;99.90;;;;;;5022999;28;20193;-87
2021/01/06 09:11:10;;;;;;;4.65;4.25;;;2.20;99.90;;;;;;5023722;28;20244;-87
2021/01/06 09:13:40;;;;;;;4.20;3.20;;;2.30;99.90;;;;;;5023360;28;20724;-87
2021/01/06 09:16:13;;;;;;;6.38;5.20;;;2.30;99.90;;;;;;5024913;28;20283;-87
2021/01/06 09:18:45;;;;;;;3.50;3.20;;;2.30;99.90;;;;;;5025595;28;20280;-86
2021/01/06 09:21:16;;;;;;;3.63;3.28;;;2.20;99.90;;;;;;5026896;28;20232;-86
2021/01/06 09:23:47;;;;;;;3.35;3.03;;;2.10;99.90;;;;;;5035700;28;20191;-86
2021/01/06 09:26:16;;;;;;;2.50;2.30;;;2.20;99.90;;;;;;5035739;28;20213;-87
2021/01/06 09:28:47;;;;;;;3.80;3.38;;;2.30;99.90;;;;;;5033558;28;20242;-86
2021/01/06 09:31:17;;;;;;;2.95;2.70;;;2.10;99.90;;;;;;5034872;28;20189;-86
2021/01/06 09:33:45;;;;;;;4.20;2.45;;;2.30;99.90;;;;;;5030705;28;20215;-86
2021/01/06 09:36:13;;;;;;;3.25;2.92;;;2.40;99.90;;;;;;5024015;28;20226;-86
2021/01/06 09:38:45;;;;;;;3.22;2.85;;;2.50;99.90;;;;;;5022500;28;20587;-86
2021/01/06 09:41:16;;;;;;;2.97;2.67;;;2.50;99.90;;;;;;5022030;28;20250;-86
2021/01/06 09:43:47;;;;;;;3.30;3.00;;;2.60;99.90;;;;;;5022377;28;20279;-86
2021/01/06 09:46:26;;;;;;;2.65;2.45;;;2.60;99.90;;;;;;5022113;28;20209;-87
2021/01/06 09:48:57;;;;;;;3.80;2.05;;;2.50;99.90;;;;;;5021658;28;20323;-86
2021/01/06 09:51:24;;;;;;;3.78;2.28;;;2.60;99.90;;;;;;5022638;28;20189;-85
2021/01/06 09:53:54;;;;;;;3.28;2.95;;;2.40;99.90;;;;;;5022016;28;20673;-87
2021/01/06 09:56:24;;;;;;;3.17;2.97;;;2.50;99.90;;;;;;5021560;28;20245;-87
2021/01/06 09:58:51;;;;;;;3.53;3.22;;;2.50;99.90;;;;;;5021800;28;20258;-86
2021/01/06 10:01:31;;;;;;;3.00;2.80;;;2.40;99.90;;;;;;5025174;28;20319;-86
2021/01/06 10:04:02;;;;;;;3.92;3.58;;;2.40;99.90;;;;;;5036301;28;20189;-87
2021/01/06 10:06:39;;;;;;;3.45;3.15;;;2.60;99.90;;;;;;5036381;28;20228;-86
2021/01/06 10:09:13;;;;;;;2.00;1.90;;;2.70;99.90;;;;;;5029856;28;20224;-86
2021/01/06 10:12:08;;;;;;;2.83;2.63;;;2.50;99.90;;;;;;5026595;28;20187;-87
2021/01/06 10:14:53;;;;;;;2.92;2.70;;;2.50;99.90;;;;;;4998153;28;20395;-86
2021/01/06 10:17:25;;;;;;;4.95;3.40;;;2.60;99.90;;;;;;5022425;28;20663;-87
2021/01/06 10:19:59;;;;;;;2.50;2.30;;;2.60;99.90;;;;;;5031122;28;20296;-86
2021/01/06 10:22:32;;;;;;;3.47;3.17;;;2.50;99.90;;;;;;5033358;28;20215;-85
2021/01/06 10:25:26;;;;;;;3.10;2.72;;;2.40;99.90;;;;;;5033667;28;20197;-84
2021/01/06 10:28:00;;;;;;;2.53;2.33;;;2.60;99.90;;;;;;5034482;28;20184;-85
2021/01/06 10:30:28;;;;;;;3.42;3.10;;;2.60;99.90;;;;;;5020651;28;20228;-85
2021/01/06 10:33:16;;;;;;;2.35;2.15;;;2.60;99.90;;;;;;5021948;28;20657;-86
2021/01/06 10:36:05;;;;;;;3.05;2.65;;;2.60;99.90;;;;;;5022217;28;20188;-86
2021/01/06 10:38:36;;;;;;;5.55;2.95;;;2.70;99.90;;;;;;5021490;28;20227;-86
2021/01/06 10:41:24;;;;;;;3.55;2.30;;;2.80;99.90;;;;;;5020896;28;20193;-86
2021/01/06 10:43:51;;;;;;;3.30;3.00;;;2.70;99.90;;;;;;5022040;28;20184;-86
2021/01/06 10:46:40;;;;;;;2.70;2.50;;;2.60;99.90;;;;;;5021046;28;20787;-86
2021/01/06 10:49:31;;;;;;;3.10;2.40;;;2.70;99.90;;;;;;5020887;28;20240;-85
2021/01/06 10:52:18;;;;;;;2.67;2.40;;;2.90;99.90;;;;;;4978548;28;20208;-87
2021/01/06 10:54:52;;;;;;;2.00;1.90;;;2.60;99.90;;;;;;5022488;28;20199;-85
2021/01/06 10:57:26;;;;;;;3.13;2.75;;;2.50;99.90;;;;;;5022920;28;20218;-85
2021/01/06 11:00:16;;;;;;;3.30;3.00;;;2.60;99.90;;;;;;5021898;28;20271;-86
2021/01/06 11:02:58;;;;;;;3.63;3.33;;;2.70;99.90;;;;;;5022339;28;20248;-85
2021/01/06 11:05:29;;;;;;;3.63;2.95;;;2.80;99.90;;;;;;5021201;28;20275;-85
2021/01/06 11:08:34;;;;;;;2.60;2.40;;;2.90;99.90;;;;;;5021610;28;20197;-86
2021/01/06 11:11:15;;;;;;;2.92;2.67;;;2.80;99.90;;;;;;5022000;28;20267;-86
2021/01/06 11:14:02;;;;;;;2.63;2.13;;;2.70;99.90;;;;;;5023357;28;20271;-86
2021/01/06 11:16:35;;;;;;;2.97;2.67;;;2.50;99.90;;;;;;5022521;28;20271;-87
2021/01/06 11:19:36;;;;;;;2.88;2.22;;;2.60;99.90;;;;;;5022718;28;20243;-86
2021/01/06 11:22:06;;;;;;;2.20;2.05;;;2.60;99.90;;;;;;5033820;28;20205;-86
2021/01/06 11:24:54;;;;;;;2.50;2.30;;;2.70;99.90;;;;;;5021049;28;20200;-86
2021/01/06 11:27:40;;;;;;;2.67;2.42;;;2.60;99.90;;;;;;5022957;28;20309;-86
2021/01/06 11:30:23;;;;;;;3.00;2.53;;;2.60;99.90;;;;;;5021713;28;20248;-86
2021/01/06 11:33:10;;;;;;;1.98;1.88;;;2.60;99.90;;;;;;5020893;28;20185;-86
2021/01/06 11:35:44;;;;;;;2.00;1.80;;;2.70;99.90;;;;;;5021218;28;20274;-86
2021/01/06 11:38:45;;;;;;;2.00;1.90;;;2.90;99.90;;;;;;5028726;28;20211;-86
2021/01/06 11:41:12;;;;;;;2.30;2.10;;;2.90;99.90;;;;;;5024354;28;20276;-84
2021/01/06 11:43:59;;;;;;;2.28;2.13;;;2.90;99.90;;;;;;5025208;28;20243;-86
2021/01/06 11:46:53;;;;;;;4.13;2.35;;;2.90;99.90;;;;;;5021701;28;20236;-86
2021/01/06 11:49:31;;;;;;;2.92;2.40;;;2.90;99.90;;;;;;5025446;28;20778;-86
2021/01/06 11:52:13;;;;;;;2.45;2.25;;;2.90;99.90;;;;;;5024991;28;20223;-86
2021/01/06 11:54:47;;;;;;;2.00;1.90;;;2.90;99.90;;;;;;5023586;28;20272;-86
2021/01/06 11:57:21;;;;;;;2.22;1.88;;;2.90;99.90;;;;;;5022683;28;20251;-86
2021/01/06 12:00:02;;;;;;;3.25;2.20;;;2.80;99.90;;;;;;5023789;28;20228;-86
2021/01/06 12:02:30;;;;;;;2.67;2.47;;;2.80;99.90;;;;;;5024674;28;20246;-86
2021/01/06 12:05:16;;;;;;;4.70;2.80;;;3.00;99.90;;;;;;5023195;28;20211;-86
2021/01/06 12:07:56;;;;;;;2.20;2.10;;;3.00;99.90;;;;;;5023506;28;20199;-85
2021/01/06 12:10:27;;;;;;;2.33;2.00;;;3.00;99.90;;;;;;5023498;28;20259;-86
2021/01/06 12:13:12;;;;;;;2.20;2.10;;;3.10;99.90;;;;;;5022685;28;20287;-86
2021/01/06 12:16:06;;;;;;;2.22;2.05;;;3.10;99.90;;;;;;5021748;28;20187;-87
2021/01/06 12:18:57;;;;;;;1.98;1.88;;;3.10;99.90;;;;;;5023733;28;20243;-87
2021/01/06 12:21:49;;;;;;;2.17;2.00;;;3.10;99.90;;;;;;5021368;28;20216;-86
2021/01/06 12:24:39;;;;;;;2.25;2.10;;;3.00;99.90;;;;;;5019383;28;20526;-86
2021/01/06 12:27:41;;;;;;;2.45;2.25;;;3.10;99.90;;;;;;5022682;28;20231;-86
2021/01/06 12:30:37;;;;;;;4.50;2.63;;;3.10;99.90;;;;;;5021958;28;20345;-87
2021/01/06 12:33:27;;;;;;;3.20;2.47;;;3.20;99.90;;;;;;5023112;28;20363;-86
2021/01/06 12:36:10;;;;;;;3.55;2.15;;;3.20;99.90;;;;;;5026982;28;20630;-86
2021/01/06 12:38:38;;;;;;;1.95;1.85;;;3.10;99.90;;;;;;5023085;28;20279;-86
2021/01/06 12:41:10;;;;;;;3.40;3.20;;;3.10;99.90;;;;;;5022087;28;20208;-86
2021/01/06 12:43:42;;;;;;;2.88;2.67;;;3.10;99.90;;;;;;5022425;28;20204;-87
2021/01/06 12:46:20;;;;;;;2.80;2.38;;;3.10;99.90;;;;;;5021596;28;20213;-86
2021/01/06 12:48:57;;;;;;;2.42;2.22;;;3.20;99.90;;;;;;5022404;28;20232;-86
2021/01/06 12:51:28;;;;;;;2.97;2.35;;;3.10;99.90;;;;;;5023806;28;20192;-86
2021/01/06 12:53:59;;;;;;;3.45;3.13;;;3.20;99.90;;;;;;5024567;28;20220;-87
2021/01/06 12:56:34;;;;;;;2.80;2.70;;;3.10;99.90;;;;;;5023272;28;20270;-86
2021/01/06 12:59:15;;;;;;;3.10;2.90;;;3.10;99.90;;;;;;5024663;28;20228;-87
2021/01/06 13:01:51;;;;;;;1.88;1.77;;;3.30;99.90;;;;;;5023124;28;20208;-86
2021/01/06 13:04:27;;;;;;;2.47;2.30;;;3.20;99.90;;;;;;5022703;28;20184;-86
2021/01/06 13:07:19;;;;;;;2.75;2.53;;;3.30;99.90;;;;;;5022333;28;20235;-86
2021/01/06 13:09:58;;;;;;;3.80;3.55;;;3.10;99.90;;;;;;5022315;28;20339;-86
2021/01/06 13:12:37;;;;;;;2.65;2.45;;;3.10;99.90;;;;;;5026920;28;20256;-87
2021/01/06 13:15:09;;;;;;;2.85;2.55;;;3.00;99.90;;;;;;5024605;28;20609;-87
2021/01/06 13:17:38;;;;;;;2.50;2.30;;;3.10;99.90;;;;;;5021304;28;20275;-87
2021/01/06 13:20:41;;;;;;;2.65;2.45;;;3.00;99.90;;;;;;5021760;28;20789;-87
2021/01/06 13:23:28;;;;;;;2.20;2.10;;;3.00;99.90;;;;;;5021812;28;20192;-87
2021/01/06 13:26:10;;;;;;;1.77;1.67;;;3.00;99.90;;;;;;5021918;28;20220;-87
2021/01/06 13:28:38;;;;;;;2.17;2.08;;;2.90;99.90;;;;;;5022426;28;20228;-87
2021/01/06 13:31:33;;;;;;;2.58;2.35;;;2.80;99.90;;;;;;5028796;28;20212;-87
2021/01/06 13:34:29;;;;;;;2.10;1.90;;;2.70;99.90;;;;;;5023243;28;20226;-87
2021/01/06 13:36:58;;;;;;;3.88;3.03;;;2.80;99.90;;;;;;4987162;28;20228;-87